Time;durP1;ratioP1;P1;durP2;ratioP2;P2;SDS_P1;SDS_P2;PMS_P1;PMS_P2;Temp;Humidity;BMP_temperature;BMP_pressure;BME280_temperature;BME280_humidity;BME280_pressure;Samples;Min_cycle;Max_cycle;Signal;HPM_P1;HPM_P2
2022/01/10 00:00:16;;;;;;;66.03;45.38;;;;;;;;;;5109547;28;20451;-88
2022/01/10 00:02:44;;;;;;;63.60;44.47;;;;;;;;;;5108836;28;20391;-85
2022/01/10 00:05:12;;;;;;;61.03;43.50;;;;;;;;;;5107341;28;20398;-84
2022/01/10 00:07:41;;;;;;;66.50;44.72;;;;;;;;;;5107059;28;20403;-85
2022/01/10 00:10:09;;;;;;;63.10;43.70;;;;;;;;;;5107500;28;20790;-85
2022/01/10 00:12:36;;;;;;;62.17;44.22;;;;;;;;;;5108686;28;20394;-85
2022/01/10 00:15:05;;;;;;;62.50;43.55;;;;;;;;;;5109059;28;21130;-85
2022/01/10 00:17:32;;;;;;;64.53;43.70;;;;;;;;;;5108848;28;20398;-85
2022/01/10 00:19:59;;;;;;;61.88;43.00;;;;;;;;;;5109324;28;20402;-85
2022/01/10 00:22:26;;;;;;;61.33;43.33;;;;;;;;;;5109551;28;20402;-85
2022/01/10 00:24:54;;;;;;;60.47;42.28;;;;;;;;;;5108454;28;20409;-84
2022/01/10 00:27:21;;;;;;;62.00;41.80;;;;;;;;;;5110456;28;20878;-87
2022/01/10 00:29:48;;;;;;;62.88;41.97;;;;;;;;;;5110791;28;20809;-87
2022/01/10 00:32:15;;;;;;;61.78;42.17;;;;;;;;;;5132905;28;20403;-83
2022/01/10 00:34:42;;;;;;;61.22;42.95;;;;;;;;;;5119263;28;20395;-84
2022/01/10 00:37:08;;;;;;;61.50;43.08;;;;;;;;;;5107888;28;21135;-85
2022/01/10 00:39:35;;;;;;;65.57;44.25;;;;;;;;;;5105737;28;20402;-85
2022/01/10 00:42:04;;;;;;;64.93;44.38;;;;;;;;;;5108420;28;20436;-85
2022/01/10 00:44:37;;;;;;;66.88;45.45;;;;;;;;;;5108199;28;20395;-86
2022/01/10 00:47:04;;;;;;;63.23;44.03;;;;;;;;;;5108483;28;20485;-85
2022/01/10 00:49:31;;;;;;;65.03;44.05;;;;;;;;;;5108036;28;20399;-84
2022/01/10 00:51:58;;;;;;;62.45;43.42;;;;;;;;;;5107252;28;20455;-85
2022/01/10 00:54:25;;;;;;;63.70;44.45;;;;;;;;;;5106942;28;20452;-84
2022/01/10 00:56:51;;;;;;;66.45;44.95;;;;;;;;;;5107876;28;20732;-85
2022/01/10 00:59:20;;;;;;;62.92;44.13;;;;;;;;;;5108272;28;20436;-86
2022/01/10 01:01:46;;;;;;;63.97;43.92;;;;;;;;;;5107838;28;20816;-85
2022/01/10 01:04:14;;;;;;;61.67;43.95;;;;;;;;;;5107822;28;21160;-86
2022/01/10 01:06:41;;;;;;;61.78;45.38;;;;;;;;;;5107402;28;20882;-87
2022/01/10 01:09:11;;;;;;;63.97;44.67;;;;;;;;;;5104491;28;20644;-87
2022/01/10 01:12:09;;;;;;;66.95;45.30;;;;;;;;;;5104833;28;20414;-86
2022/01/10 01:14:50;;;;;;;68.07;46.75;;;;;;;;;;5106961;28;21198;-87
2022/01/10 01:17:33;;;;;;;68.63;46.25;;;;;;;;;;5107698;28;20459;-85
2022/01/10 01:20:10;;;;;;;64.50;46.35;;;;;;;;;;5106444;28;20411;-86
2022/01/10 01:25:21;;;;;;;64.30;43.50;;;;;;;;;;5104982;28;20413;-86
2022/01/10 01:27:51;;;;;;;57.00;39.33;;;;;;;;;;5105224;28;20403;-87
2022/01/10 01:30:19;;;;;;;56.30;39.37;;;;;;;;;;5107607;28;20414;-86
2022/01/10 01:32:46;;;;;;;58.35;41.55;;;;;;;;;;5106973;28;20399;-86
2022/01/10 01:35:13;;;;;;;58.35;41.00;;;;;;;;;;5107275;28;20399;-86
2022/01/10 01:37:40;;;;;;;57.95;41.13;;;;;;;;;;5104586;28;20398;-84
2022/01/10 01:40:10;;;;;;;49.28;36.60;;;;;;;;;;5105326;28;20402;-86
2022/01/10 01:42:40;;;;;;;53.28;37.72;;;;;;;;;;5105770;28;20410;-86
2022/01/10 01:45:09;;;;;;;50.00;34.90;;;;;;;;;;5107369;28;20395;-87
2022/01/10 01:47:37;;;;;;;47.75;33.97;;;;;;;;;;5106434;28;20395;-86
2022/01/10 01:50:07;;;;;;;46.97;34.35;;;;;;;;;;5106980;28;20821;-87
2022/01/10 01:52:34;;;;;;;49.13;34.65;;;;;;;;;;5105862;28;20531;-87
2022/01/10 01:55:01;;;;;;;42.60;31.00;;;;;;;;;;5105956;28;20464;-87
2022/01/10 01:57:28;;;;;;;42.28;30.13;;;;;;;;;;5106959;28;20399;-86
2022/01/10 01:59:55;;;;;;;43.83;30.10;;;;;;;;;;5106779;28;20402;-86
2022/01/10 02:02:22;;;;;;;41.92;29.63;;;;;;;;;;5104814;28;20395;-86
2022/01/10 02:04:50;;;;;;;42.47;29.88;;;;;;;;;;5106366;28;20402;-86
2022/01/10 02:07:18;;;;;;;41.58;29.65;;;;;;;;;;5106935;28;20475;-86
2022/01/10 02:09:45;;;;;;;40.90;28.02;;;;;;;;;;5103249;28;20408;-86
2022/01/10 02:12:12;;;;;;;36.28;26.23;;;;;;;;;;5106213;28;20418;-86
2022/01/10 02:14:40;;;;;;;35.03;25.63;;;;;;;;;;5100853;28;20403;-86
2022/01/10 02:17:07;;;;;;;37.63;26.17;;;;;;;;;;5106756;28;20410;-86
2022/01/10 02:19:34;;;;;;;38.13;26.33;;;;;;;;;;5106527;28;20403;-86
2022/01/10 02:22:02;;;;;;;35.28;25.60;;;;;;;;;;5107010;28;20935;-85
2022/01/10 02:24:29;;;;;;;34.33;25.60;;;;;;;;;;5105407;28;20473;-85
2022/01/10 02:26:56;;;;;;;36.35;25.58;;;;;;;;;;5106794;28;20403;-86
2022/01/10 02:29:23;;;;;;;33.83;24.67;;;;;;;;;;5104905;28;20406;-86
2022/01/10 02:31:50;;;;;;;35.33;25.40;;;;;;;;;;5106321;28;20429;-86
2022/01/10 02:34:19;;;;;;;33.88;24.55;;;;;;;;;;5107128;28;20407;-86
2022/01/10 02:36:46;;;;;;;33.23;25.43;;;;;;;;;;5106367;28;20406;-86
2022/01/10 02:39:19;;;;;;;33.65;25.30;;;;;;;;;;5105956;28;20402;-85
2022/01/10 02:41:46;;;;;;;36.28;26.50;;;;;;;;;;5105907;28;20403;-86
2022/01/10 02:44:16;;;;;;;34.53;24.50;;;;;;;;;;5105948;28;20920;-86
2022/01/10 02:46:44;;;;;;;33.50;24.80;;;;;;;;;;5105692;28;20387;-86
2022/01/10 02:49:12;;;;;;;34.08;25.42;;;;;;;;;;5106486;28;20452;-87
2022/01/10 02:51:40;;;;;;;34.45;24.77;;;;;;;;;;5104120;28;20467;-86
2022/01/10 02:54:07;;;;;;;32.85;25.15;;;;;;;;;;5106636;28;20805;-86
2022/01/10 02:56:36;;;;;;;36.35;25.80;;;;;;;;;;5104738;28;20473;-86
2022/01/10 02:59:02;;;;;;;35.45;26.17;;;;;;;;;;5106651;28;20443;-86
2022/01/10 03:01:29;;;;;;;35.03;25.23;;;;;;;;;;5103799;28;20819;-86
2022/01/10 03:03:56;;;;;;;38.45;25.58;;;;;;;;;;5107054;28;20452;-86
2022/01/10 03:06:23;;;;;;;35.03;25.65;;;;;;;;;;5107261;28;20801;-86
2022/01/10 03:08:50;;;;;;;36.58;26.70;;;;;;;;;;5106786;28;20411;-87
2022/01/10 03:11:16;;;;;;;34.55;26.00;;;;;;;;;;5105133;28;20428;-86
2022/01/10 03:13:45;;;;;;;36.15;25.90;;;;;;;;;;5107433;28;20407;-86
2022/01/10 03:16:12;;;;;;;38.53;26.77;;;;;;;;;;5109023;28;20488;-86
2022/01/10 03:18:39;;;;;;;36.83;26.70;;;;;;;;;;5111383;28;20898;-87
2022/01/10 03:21:05;;;;;;;39.28;28.27;;;;;;;;;;5113284;28;20406;-86
2022/01/10 03:23:32;;;;;;;37.90;28.55;;;;;;;;;;5117993;28;20398;-86
2022/01/10 03:25:59;;;;;;;35.97;27.52;;;;;;;;;;5129624;28;20394;-86
2022/01/10 03:28:26;;;;;;;38.92;27.73;;;;;;;;;;5110705;28;20444;-86
2022/01/10 03:30:54;;;;;;;37.65;28.17;;;;;;;;;;5110340;28;20429;-86
2022/01/10 03:33:21;;;;;;;41.15;29.70;;;;;;;;;;5110498;28;20403;-86
2022/01/10 03:35:49;;;;;;;40.92;29.67;;;;;;;;;;5109777;28;20399;-86
2022/01/10 03:38:16;;;;;;;41.90;31.13;;;;;;;;;;5109455;28;20410;-86
2022/01/10 03:40:43;;;;;;;41.50;29.73;;;;;;;;;;5106664;28;20418;-86
2022/01/10 03:43:10;;;;;;;39.72;28.70;;;;;;;;;;5106229;28;20447;-86
2022/01/10 03:45:37;;;;;;;37.97;28.85;;;;;;;;;;5109925;28;20448;-86
2022/01/10 03:48:05;;;;;;;36.22;26.63;;;;;;;;;;5109071;28;20474;-87
2022/01/10 03:50:32;;;;;;;37.67;27.90;;;;;;;;;;5109882;28;20394;-86
2022/01/10 03:52:59;;;;;;;38.23;27.73;;;;;;;;;;5110374;28;20463;-86
2022/01/10 03:55:26;;;;;;;37.15;27.48;;;;;;;;;;5107743;28;20780;-86
2022/01/10 03:57:53;;;;;;;38.37;28.33;;;;;;;;;;5110041;28;20455;-86
2022/01/10 04:00:20;;;;;;;37.25;26.92;;;;;;;;;;5109922;28;20781;-87
2022/01/10 04:02:53;;;;;;;36.50;27.40;;;;;;;;;;5109660;28;20399;-86
2022/01/10 04:05:21;;;;;;;38.10;28.13;;;;;;;;;;5109843;28;20403;-86
2022/01/10 04:07:48;;;;;;;38.70;29.03;;;;;;;;;;5107806;28;20398;-86
2022/01/10 04:10:15;;;;;;;37.95;28.13;;;;;;;;;;5108127;28;20414;-86
2022/01/10 04:12:42;;;;;;;32.90;26.92;;;;;;;;;;5109239;28;20430;-86
2022/01/10 04:15:10;;;;;;;35.63;26.92;;;;;;;;;;5109722;28;20484;-86
2022/01/10 04:17:37;;;;;;;36.17;26.15;;;;;;;;;;5109204;28;20736;-86
2022/01/10 04:20:05;;;;;;;31.00;23.52;;;;;;;;;;5108782;28;20414;-86
2022/01/10 04:22:34;;;;;;;30.60;23.02;;;;;;;;;;5109167;28;20902;-86
2022/01/10 04:25:00;;;;;;;31.70;22.65;;;;;;;;;;5105408;28;20396;-86
2022/01/10 04:27:31;;;;;;;32.50;22.83;;;;;;;;;;5109338;28;20426;-87
2022/01/10 04:29:58;;;;;;;28.95;22.08;;;;;;;;;;5109626;28;20410;-86
2022/01/10 04:32:27;;;;;;;32.15;22.27;;;;;;;;;;5109234;28;20426;-86
2022/01/10 04:34:54;;;;;;;30.77;22.38;;;;;;;;;;5108827;28;20410;-86
2022/01/10 04:37:20;;;;;;;29.92;21.70;;;;;;;;;;5108203;28;20744;-86
2022/01/10 04:39:49;;;;;;;29.25;21.50;;;;;;;;;;5106718;28;20904;-86
2022/01/10 04:42:16;;;;;;;31.60;21.75;;;;;;;;;;5109100;28;20402;-86
2022/01/10 04:44:44;;;;;;;30.15;21.55;;;;;;;;;;5108899;28;20422;-87
2022/01/10 04:47:11;;;;;;;28.05;21.88;;;;;;;;;;5100778;28;20450;-86
2022/01/10 04:50:00;;;;;;;28.80;22.25;;;;;;;;;;5108830;28;20456;-86
2022/01/10 04:52:25;;;;;;;29.23;21.45;;;;;;;;;;5105925;28;20407;-86
2022/01/10 04:54:53;;;;;;;27.17;20.50;;;;;;;;;;5105263;28;20414;-86
2022/01/10 04:57:20;;;;;;;27.00;20.40;;;;;;;;;;5108823;28;20391;-86
2022/01/10 04:59:47;;;;;;;27.83;20.00;;;;;;;;;;5108310;28;20398;-86
2022/01/10 05:02:14;;;;;;;27.42;20.52;;;;;;;;;;5108420;28;20412;-86
2022/01/10 05:04:42;;;;;;;29.58;21.20;;;;;;;;;;5101306;28;20421;-87
2022/01/10 05:07:10;;;;;;;27.15;21.00;;;;;;;;;;5104929;28;20414;-86
2022/01/10 05:09:36;;;;;;;28.55;20.50;;;;;;;;;;5106493;28;20402;-86
2022/01/10 05:12:06;;;;;;;29.90;21.08;;;;;;;;;;5107541;28;20871;-86
2022/01/10 05:14:34;;;;;;;28.38;19.90;;;;;;;;;;5107500;28;20390;-86
2022/01/10 05:17:00;;;;;;;28.40;20.33;;;;;;;;;;5107702;28;20394;-86
2022/01/10 05:19:27;;;;;;;29.13;20.40;;;;;;;;;;5107846;28;20399;-86
2022/01/10 05:21:54;;;;;;;25.42;17.70;;;;;;;;;;5107969;28;20399;-86
2022/01/10 05:24:21;;;;;;;25.60;17.55;;;;;;;;;;5105607;28;20403;-86
2022/01/10 05:26:48;;;;;;;25.35;18.52;;;;;;;;;;5106885;28;20464;-87
2022/01/10 05:29:16;;;;;;;25.35;18.70;;;;;;;;;;5107563;28;20399;-87
2022/01/10 05:31:44;;;;;;;24.02;18.65;;;;;;;;;;5107259;28;20413;-86
2022/01/10 05:34:11;;;;;;;21.17;16.05;;;;;;;;;;5106275;28;20398;-86
2022/01/10 05:36:38;;;;;;;20.58;16.02;;;;;;;;;;5107262;28;20440;-87
2022/01/10 05:39:07;;;;;;;18.30;13.85;;;;;;;;;;5107074;28;20399;-86
2022/01/10 05:41:34;;;;;;;18.85;13.73;;;;;;;;;;5106822;28;20471;-86
2022/01/10 05:44:01;;;;;;;20.60;14.85;;;;;;;;;;5107431;28;20451;-86
2022/01/10 05:46:29;;;;;;;20.20;14.95;;;;;;;;;;5107631;28;20409;-86
2022/01/10 05:49:00;;;;;;;20.33;14.90;;;;;;;;;;5107930;28;20553;-87
2022/01/10 05:51:32;;;;;;;21.30;15.25;;;;;;;;;;5107674;28;20493;-87
2022/01/10 05:53:59;;;;;;;22.92;15.32;;;;;;;;;;5102269;28;20492;-87
2022/01/10 05:56:26;;;;;;;21.35;15.30;;;;;;;;;;5103093;28;20487;-83
2022/01/10 05:58:53;;;;;;;23.88;15.68;;;;;;;;;;5106102;28;20432;-86
2022/01/10 06:01:20;;;;;;;22.63;16.25;;;;;;;;;;5108376;28;20395;-88
2022/01/10 06:03:48;;;;;;;21.90;15.48;;;;;;;;;;5108243;28;20808;-87
2022/01/10 06:06:15;;;;;;;18.85;14.73;;;;;;;;;;5102771;28;20406;-88
2022/01/10 06:08:42;;;;;;;19.45;14.43;;;;;;;;;;5108868;28;20402;-88
2022/01/10 06:11:09;;;;;;;19.83;14.77;;;;;;;;;;5107908;28;20430;-89
2022/01/10 06:13:35;;;;;;;21.02;14.98;;;;;;;;;;5107589;28;20826;-88
2022/01/10 06:16:04;;;;;;;21.27;14.70;;;;;;;;;;5122345;28;20464;-88
2022/01/10 06:18:31;;;;;;;17.27;13.77;;;;;;;;;;5127207;28;20802;-88
2022/01/10 06:20:59;;;;;;;18.92;13.73;;;;;;;;;;5109833;28;20462;-88
2022/01/10 06:23:26;;;;;;;20.80;13.88;;;;;;;;;;5105642;28;22089;-87
2022/01/10 06:25:53;;;;;;;19.27;13.57;;;;;;;;;;5103959;28;20482;-88
2022/01/10 06:28:20;;;;;;;18.80;13.20;;;;;;;;;;5101902;28;20403;-88
2022/01/10 06:30:47;;;;;;;18.13;12.50;;;;;;;;;;5103427;28;20434;-88
2022/01/10 06:33:14;;;;;;;19.42;13.18;;;;;;;;;;5099310;28;20815;-87
2022/01/10 06:35:41;;;;;;;18.05;12.45;;;;;;;;;;5102621;28;20407;-89
2022/01/10 06:38:09;;;;;;;17.50;12.93;;;;;;;;;;5104471;28;20403;-89
2022/01/10 06:40:36;;;;;;;20.25;14.15;;;;;;;;;;5103661;28;20804;-87
2022/01/10 06:43:04;;;;;;;26.50;15.20;;;;;;;;;;5103174;28;20403;-88
2022/01/10 06:45:31;;;;;;;22.00;15.00;;;;;;;;;;5103696;28;20426;-87
2022/01/10 06:47:58;;;;;;;21.80;14.20;;;;;;;;;;5106941;28;20499;-87
2022/01/10 06:50:25;;;;;;;21.98;14.45;;;;;;;;;;5109607;28;20402;-87
2022/01/10 06:52:54;;;;;;;20.45;14.48;;;;;;;;;;5104593;28;20475;-86
2022/01/10 06:55:22;;;;;;;23.27;15.83;;;;;;;;;;5105601;28;20477;-87
2022/01/10 06:57:49;;;;;;;22.65;15.20;;;;;;;;;;5106684;28;20791;-87
2022/01/10 07:00:17;;;;;;;20.30;14.05;;;;;;;;;;5106535;28;20398;-87
2022/01/10 07:02:44;;;;;;;17.37;13.07;;;;;;;;;;5110265;28;20455;-87
2022/01/10 07:05:10;;;;;;;20.30;14.30;;;;;;;;;;5108102;28;20430;-87
2022/01/10 07:07:37;;;;;;;25.67;17.20;;;;;;;;;;5109816;28;20424;-87
2022/01/10 07:10:05;;;;;;;20.88;14.15;;;;;;;;;;5109702;28;20940;-87
2022/01/10 07:12:34;;;;;;;21.35;13.50;;;;;;;;;;5110337;28;20848;-86
2022/01/10 07:15:01;;;;;;;19.13;13.30;;;;;;;;;;5110058;28;20451;-86
2022/01/10 07:17:29;;;;;;;21.50;15.85;;;;;;;;;;5110301;28;20407;-87
2022/01/10 07:19:56;;;;;;;21.05;14.65;;;;;;;;;;5108137;28;20403;-85
2022/01/10 07:22:23;;;;;;;21.75;14.73;;;;;;;;;;5108269;28;20504;-88
2022/01/10 07:24:50;;;;;;;22.23;14.82;;;;;;;;;;5108724;28;20483;-87
2022/01/10 07:27:17;;;;;;;21.02;14.50;;;;;;;;;;5110013;28;20740;-87
2022/01/10 07:29:49;;;;;;;20.48;13.68;;;;;;;;;;5109558;28;20386;-87
2022/01/10 07:32:16;;;;;;;18.98;13.70;;;;;;;;;;5105232;28;21219;-87
2022/01/10 07:34:43;;;;;;;24.23;14.98;;;;;;;;;;5108968;28;20398;-88
2022/01/10 07:37:10;;;;;;;32.17;18.63;;;;;;;;;;5106418;28;20409;-88
2022/01/10 07:39:37;;;;;;;36.40;21.70;;;;;;;;;;5107639;28;21376;-87
2022/01/10 07:42:05;;;;;;;36.42;21.08;;;;;;;;;;5109644;28;20398;-88
2022/01/10 07:44:32;;;;;;;34.92;21.30;;;;;;;;;;5109133;28;20398;-87
2022/01/10 07:47:01;;;;;;;31.30;18.95;;;;;;;;;;5109339;28;20398;-86
2022/01/10 07:49:28;;;;;;;34.03;20.65;;;;;;;;;;5108159;28;20402;-87
2022/01/10 07:51:57;;;;;;;34.63;19.77;;;;;;;;;;5107212;28;20459;-87
2022/01/10 07:54:25;;;;;;;32.70;19.77;;;;;;;;;;5108289;28;20884;-87
2022/01/10 07:56:52;;;;;;;38.33;19.63;;;;;;;;;;5108556;28;20410;-87
2022/01/10 07:59:19;;;;;;;33.20;19.00;;;;;;;;;;5109122;27;20472;-87
2022/01/10 08:01:47;;;;;;;34.05;19.35;;;;;;;;;;5108882;28;20394;-87
2022/01/10 08:04:16;;;;;;;44.28;24.15;;;;;;;;;;5108529;28;20395;-87
2022/01/10 08:06:43;;;;;;;42.90;22.73;;;;;;;;;;5105905;28;20398;-87
2022/01/10 08:09:10;;;;;;;44.10;23.63;;;;;;;;;;5106585;28;20875;-87
2022/01/10 08:11:37;;;;;;;48.67;24.33;;;;;;;;;;5107720;28;20805;-87
2022/01/10 08:14:05;;;;;;;47.42;25.33;;;;;;;;;;5108693;28;20418;-88
2022/01/10 08:16:32;;;;;;;46.92;25.58;;;;;;;;;;5108850;28;20399;-87
2022/01/10 08:18:59;;;;;;;43.70;23.70;;;;;;;;;;5109490;28;20414;-87
2022/01/10 08:21:27;;;;;;;43.22;23.92;;;;;;;;;;5110310;28;20459;-91
2022/01/10 08:23:54;;;;;;;42.10;22.27;;;;;;;;;;5109648;28;20398;-89
2022/01/10 08:26:21;;;;;;;39.47;22.65;;;;;;;;;;5109591;28;20436;-90
2022/01/10 08:28:48;;;;;;;42.33;23.07;;;;;;;;;;5110439;28;20455;-90
2022/01/10 08:31:15;;;;;;;39.13;22.70;;;;;;;;;;5110390;28;20391;-90
2022/01/10 08:33:45;;;;;;;40.53;23.27;;;;;;;;;;5110631;28;20828;-90
2022/01/10 08:36:12;;;;;;;41.90;24.40;;;;;;;;;;5110277;28;20808;-89
2022/01/10 08:38:41;;;;;;;40.72;24.15;;;;;;;;;;5109650;28;20463;-89
2022/01/10 08:41:08;;;;;;;41.03;23.57;;;;;;;;;;5109909;28;20398;-90
2022/01/10 08:43:35;;;;;;;43.50;24.42;;;;;;;;;;5110219;28;20407;-90
2022/01/10 08:46:02;;;;;;;45.10;24.70;;;;;;;;;;5108551;28;20463;-89
2022/01/10 08:48:28;;;;;;;36.80;23.08;;;;;;;;;;5110794;28;20407;-90
2022/01/10 08:50:55;;;;;;;40.13;24.27;;;;;;;;;;5110722;28;20880;-89
2022/01/10 08:53:22;;;;;;;72.25;35.47;;;;;;;;;;5110374;28;20480;-90
2022/01/10 08:55:51;;;;;;;192.48;70.68;;;;;;;;;;5108011;28;20406;-90
2022/01/10 08:58:18;;;;;;;93.25;40.78;;;;;;;;;;5110279;28;20882;-90
2022/01/10 09:00:46;;;;;;;46.97;27.27;;;;;;;;;;5110477;27;20434;-89
2022/01/10 09:03:12;;;;;;;99.57;48.13;;;;;;;;;;5110476;28;20882;-89
2022/01/10 09:05:39;;;;;;;59.93;33.07;;;;;;;;;;5111082;28;20444;-90
2022/01/10 09:08:07;;;;;;;54.33;29.95;;;;;;;;;;5112295;28;20411;-90
2022/01/10 09:10:34;;;;;;;49.42;28.00;;;;;;;;;;5123698;28;20383;-89
2022/01/10 09:13:02;;;;;;;45.00;26.77;;;;;;;;;;5129306;28;20415;-90
2022/01/10 09:15:29;;;;;;;40.47;25.65;;;;;;;;;;5099799;28;20468;-89
2022/01/10 09:17:56;;;;;;;44.20;26.58;;;;;;;;;;5106797;28;20390;-89
2022/01/10 09:20:23;;;;;;;80.20;43.38;;;;;;;;;;5106369;28;20402;-90
2022/01/10 09:22:50;;;;;;;50.67;29.53;;;;;;;;;;5106940;28;20403;-89
2022/01/10 09:25:17;;;;;;;52.38;31.30;;;;;;;;;;5101401;28;20408;-90
2022/01/10 09:27:44;;;;;;;76.43;43.42;;;;;;;;;;5109519;28;20410;-90
2022/01/10 09:30:13;;;;;;;86.93;44.15;;;;;;;;;;5107319;28;20928;-89
2022/01/10 09:32:40;;;;;;;59.92;32.80;;;;;;;;;;5102525;28;20407;-89
2022/01/10 09:35:08;;;;;;;108.15;50.92;;;;;;;;;;5109188;28;20399;-89
2022/01/10 09:37:35;;;;;;;91.23;45.73;;;;;;;;;;5109104;28;20492;-89
2022/01/10 09:40:02;;;;;;;50.22;30.65;;;;;;;;;;5106759;28;20402;-89
2022/01/10 09:42:30;;;;;;;51.47;31.10;;;;;;;;;;5108831;28;20402;-90
2022/01/10 09:44:57;;;;;;;45.10;27.35;;;;;;;;;;5107046;28;20494;-89
2022/01/10 09:47:25;;;;;;;42.70;27.85;;;;;;;;;;5108957;28;20406;-89
2022/01/10 09:49:52;;;;;;;37.47;26.17;;;;;;;;;;5109164;28;20398;-90
2022/01/10 09:52:19;;;;;;;41.45;27.73;;;;;;;;;;5108990;28;20936;-89
2022/01/10 09:54:46;;;;;;;39.58;27.20;;;;;;;;;;5105930;28;20444;-89
2022/01/10 09:57:13;;;;;;;37.72;26.25;;;;;;;;;;5108616;28;20399;-90
2022/01/10 09:59:41;;;;;;;33.83;24.03;;;;;;;;;;5106140;28;20463;-90
2022/01/10 10:02:08;;;;;;;36.50;24.58;;;;;;;;;;5108801;28;20405;-90
2022/01/10 10:04:38;;;;;;;37.40;23.67;;;;;;;;;;5108732;28;20477;-90
2022/01/10 10:07:06;;;;;;;35.53;22.63;;;;;;;;;;5109166;28;20406;-89
2022/01/10 10:09:33;;;;;;;33.63;21.80;;;;;;;;;;5108228;28;20444;-90
2022/01/10 10:12:00;;;;;;;31.10;20.70;;;;;;;;;;5108533;28;20875;-89
2022/01/10 10:14:27;;;;;;;29.93;19.93;;;;;;;;;;5108005;28;20468;-89
2022/01/10 10:16:57;;;;;;;26.77;19.20;;;;;;;;;;5108848;28;20402;-90
2022/01/10 10:19:25;;;;;;;34.00;19.60;;;;;;;;;;5108135;28;20426;-89
2022/01/10 10:21:54;;;;;;;29.95;19.88;;;;;;;;;;5108425;28;20724;-90
2022/01/10 10:24:22;;;;;;;27.90;19.60;;;;;;;;;;5110395;28;20414;-89
2022/01/10 10:26:49;;;;;;;30.63;21.27;;;;;;;;;;5107807;28;20402;-89
2022/01/10 10:29:19;;;;;;;29.67;20.50;;;;;;;;;;5112508;28;20437;-90
2022/01/10 10:31:49;;;;;;;28.65;20.33;;;;;;;;;;5111334;28;20402;-89
2022/01/10 10:34:19;;;;;;;30.47;20.70;;;;;;;;;;5112249;28;20402;-90
2022/01/10 10:36:58;;;;;;;34.22;21.92;;;;;;;;;;5112539;28;20482;-90
2022/01/10 10:39:28;;;;;;;35.97;21.90;;;;;;;;;;5112836;28;20468;-88
2022/01/10 10:41:56;;;;;;;35.47;24.17;;;;;;;;;;5112228;28;20459;-90
2022/01/10 10:44:23;;;;;;;34.87;22.60;;;;;;;;;;5112011;27;20501;-89
2022/01/10 10:46:52;;;;;;;35.00;23.25;;;;;;;;;;5111464;28;20410;-90
2022/01/10 10:49:21;;;;;;;32.60;22.77;;;;;;;;;;5112346;28;20406;-89
2022/01/10 10:51:50;;;;;;;40.45;26.73;;;;;;;;;;5112265;28;20390;-88
2022/01/10 10:54:18;;;;;;;38.13;25.65;;;;;;;;;;5112250;28;20395;-88
2022/01/10 10:56:47;;;;;;;35.63;24.48;;;;;;;;;;5111743;28;20402;-90
2022/01/10 10:59:14;;;;;;;35.22;24.73;;;;;;;;;;5112406;28;20390;-90
2022/01/10 11:01:42;;;;;;;37.80;25.48;;;;;;;;;;5112216;28;20425;-89
2022/01/10 11:04:11;;;;;;;32.58;24.10;;;;;;;;;;5111359;28;20906;-87
2022/01/10 11:06:39;;;;;;;33.28;24.33;;;;;;;;;;5103072;28;20468;-87
2022/01/10 11:09:11;;;;;;;36.80;25.15;;;;;;;;;;5108674;28;20406;-87
2022/01/10 11:11:38;;;;;;;34.92;23.80;;;;;;;;;;5110177;28;20425;-88
2022/01/10 11:14:09;;;;;;;36.07;24.40;;;;;;;;;;5110017;28;20461;-88
2022/01/10 11:16:38;;;;;;;36.45;25.48;;;;;;;;;;5110278;28;20485;-87
2022/01/10 11:19:12;;;;;;;37.10;25.95;;;;;;;;;;5109431;28;20464;-87
2022/01/10 11:21:41;;;;;;;38.88;27.05;;;;;;;;;;5109838;28;20455;-88
2022/01/10 11:24:08;;;;;;;38.53;26.17;;;;;;;;;;5109679;27;20905;-88
2022/01/10 11:26:39;;;;;;;34.13;25.27;;;;;;;;;;5108972;28;20414;-87
2022/01/10 11:29:09;;;;;;;31.02;23.05;;;;;;;;;;5108696;28;20447;-88
2022/01/10 11:31:37;;;;;;;34.03;23.38;;;;;;;;;;5109729;28;20442;-87
2022/01/10 11:34:05;;;;;;;29.73;19.92;;;;;;;;;;5109792;28;20809;-88
2022/01/10 11:36:32;;;;;;;25.33;18.55;;;;;;;;;;5108816;28;20402;-88
2022/01/10 11:39:00;;;;;;;25.17;17.73;;;;;;;;;;5108351;28;20402;-87
2022/01/10 11:41:28;;;;;;;23.92;17.90;;;;;;;;;;5109915;28;20403;-87
2022/01/10 11:44:04;;;;;;;28.05;19.95;;;;;;;;;;5109814;28;20491;-88
2022/01/10 11:46:37;;;;;;;24.63;19.00;;;;;;;;;;5105602;28;20943;-88
2022/01/10 11:49:16;;;;;;;27.38;20.13;;;;;;;;;;5106575;28;21176;-88
2022/01/10 11:51:45;;;;;;;30.15;20.45;;;;;;;;;;5106863;28;20391;-88
2022/01/10 11:54:15;;;;;;;24.33;18.02;;;;;;;;;;5107315;28;20399;-88
2022/01/10 11:56:44;;;;;;;27.48;18.30;;;;;;;;;;5108950;28;20762;-89
2022/01/10 11:59:20;;;;;;;29.80;20.30;;;;;;;;;;5107348;28;20480;-88
2022/01/10 12:01:56;;;;;;;26.85;19.77;;;;;;;;;;5108939;28;20398;-88
2022/01/10 12:04:23;;;;;;;15.20;11.00;;;;;;;;;;5108759;28;20426;-88
2022/01/10 12:06:51;;;;;;;17.02;11.98;;;;;;;;;;5109647;28;20467;-87
2022/01/10 12:09:18;;;;;;;15.25;11.43;;;;;;;;;;5104869;28;20481;-86
2022/01/10 12:11:46;;;;;;;16.02;10.98;;;;;;;;;;5108350;28;20406;-86
2022/01/10 12:14:14;;;;;;;14.77;10.88;;;;;;;;;;5107168;28;20404;-86
2022/01/10 12:16:42;;;;;;;16.98;11.63;;;;;;;;;;5109322;28;20455;-87
2022/01/10 12:19:11;;;;;;;20.65;14.98;;;;;;;;;;5105199;28;20403;-86
2022/01/10 12:21:39;;;;;;;23.25;15.20;;;;;;;;;;5142255;27;20386;-88
2022/01/10 12:24:07;;;;;;;21.00;14.07;;;;;;;;;;5124142;28;20410;-87
2022/01/10 12:26:35;;;;;;;18.63;12.60;;;;;;;;;;5108982;28;20430;-88
2022/01/10 12:29:04;;;;;;;15.25;11.70;;;;;;;;;;5098604;28;20398;-87
2022/01/10 12:31:32;;;;;;;9.80;7.63;;;;;;;;;;5105171;28;20399;-88
2022/01/10 12:34:00;;;;;;;14.85;10.07;;;;;;;;;;5099712;28;20932;-87
2022/01/10 12:36:31;;;;;;;14.98;10.45;;;;;;;;;;5100420;27;20808;-86
2022/01/10 12:39:03;;;;;;;13.07;10.00;;;;;;;;;;5098552;28;20399;-87
2022/01/10 12:41:32;;;;;;;13.10;9.80;;;;;;;;;;5101497;27;20402;-87
2022/01/10 12:43:59;;;;;;;8.30;5.82;;;;;;;;;;5097323;28;20418;-88
2022/01/10 12:46:31;;;;;;;4.50;3.50;;;;;;;;;;5104927;28;20797;-86
2022/01/10 12:49:02;;;;;;;3.90;2.60;;;;;;;;;;5107713;28;20426;-88
2022/01/10 12:51:34;;;;;;;3.73;2.83;;;;;;;;;;5107866;28;20901;-87
2022/01/10 12:54:01;;;;;;;5.47;3.30;;;;;;;;;;5105356;27;20402;-88
2022/01/10 12:56:28;;;;;;;6.18;4.80;;;;;;;;;;5104084;28;20405;-88
2022/01/10 12:58:55;;;;;;;7.13;4.88;;;;;;;;;;5103528;27;20809;-88
2022/01/10 13:01:23;;;;;;;9.33;5.40;;;;;;;;;;5105038;28;20400;-88
2022/01/10 13:03:53;;;;;;;11.18;7.35;;;;;;;;;;5101568;28;20417;-87
2022/01/10 13:06:22;;;;;;;7.72;5.88;;;;;;;;;;5105194;28;20441;-90
2022/01/10 13:08:52;;;;;;;8.65;6.07;;;;;;;;;;5105798;28;20440;-89
2022/01/10 13:11:22;;;;;;;7.75;5.97;;;;;;;;;;5100422;28;20412;-88
2022/01/10 13:13:49;;;;;;;6.38;4.70;;;;;;;;;;5109300;28;20406;-89
2022/01/10 13:16:26;;;;;;;7.78;5.07;;;;;;;;;;5107967;28;20438;-90
2022/01/10 13:18:57;;;;;;;11.13;7.60;;;;;;;;;;5101960;28;20413;-90
2022/01/10 13:21:47;;;;;;;13.10;8.52;;;;;;;;;;5101501;28;20484;-89
2022/01/10 13:24:18;;;;;;;6.65;5.00;;;;;;;;;;5106920;28;20418;-90
2022/01/10 13:26:57;;;;;;;7.00;5.18;;;;;;;;;;5104244;28;20455;-89
2022/01/10 13:29:32;;;;;;;5.28;4.32;;;;;;;;;;5106095;28;20869;-90
2022/01/10 13:32:11;;;;;;;8.30;5.68;;;;;;;;;;5107785;28;20415;-90
2022/01/10 13:34:38;;;;;;;10.20;6.80;;;;;;;;;;5105435;28;20406;-90
2022/01/10 13:37:04;;;;;;;7.90;6.07;;;;;;;;;;5102774;28;20404;-89
2022/01/10 13:39:33;;;;;;;7.10;5.20;;;;;;;;;;5104539;28;20410;-88
2022/01/10 13:42:01;;;;;;;6.25;4.95;;;;;;;;;;5108219;28;20407;-90
2022/01/10 13:44:28;;;;;;;6.10;4.60;;;;;;;;;;5107511;28;20510;-89
2022/01/10 13:47:02;;;;;;;8.35;5.53;;;;;;;;;;5108396;28;20406;-90
2022/01/10 13:49:29;;;;;;;8.00;6.25;;;;;;;;;;5107327;28;20406;-90
2022/01/10 13:52:10;;;;;;;9.02;6.15;;;;;;;;;;5109090;28;20403;-90
2022/01/10 13:54:38;;;;;;;9.10;7.45;;;;;;;;;;5104177;28;20474;-89
2022/01/10 13:57:22;;;;;;;9.20;7.57;;;;;;;;;;5101698;28;21057;-90
2022/01/10 13:59:49;;;;;;;11.25;8.25;;;;;;;;;;5107260;27;20418;-88
2022/01/10 14:02:17;;;;;;;9.50;7.20;;;;;;;;;;5109227;28;20394;-90
2022/01/10 14:04:44;;;;;;;6.80;5.70;;;;;;;;;;5107445;28;20497;-91
2022/01/10 14:07:15;;;;;;;8.05;5.40;;;;;;;;;;5105496;28;20463;-90
2022/01/10 14:09:46;;;;;;;6.70;4.93;;;;;;;;;;5102787;28;20773;-90
2022/01/10 14:12:13;;;;;;;5.47;4.88;;;;;;;;;;5109487;28;20403;-91
2022/01/10 14:14:40;;;;;;;7.13;5.78;;;;;;;;;;5108098;28;20399;-90
2022/01/10 14:17:07;;;;;;;6.60;5.68;;;;;;;;;;5131471;27;20404;-91
2022/01/10 14:19:35;;;;;;;6.50;5.38;;;;;;;;;;5105283;28;20406;-90
2022/01/10 14:22:02;;;;;;;7.45;5.20;;;;;;;;;;5106484;28;20400;-90
2022/01/10 14:24:29;;;;;;;7.25;5.78;;;;;;;;;;5104709;28;20406;-89
2022/01/10 14:26:57;;;;;;;8.63;5.70;;;;;;;;;;5107428;28;20464;-89
2022/01/10 14:29:24;;;;;;;7.40;5.72;;;;;;;;;;5105185;28;20419;-90